sensor_id;sensor_type;location;lat;lon;timestamp;P1;durP1;ratioP1;P2;durP2;ratioP2
6089;SDS011;3073;42.660;23.316;2022-07-29T00:00:11;16.93;;;11.83;;
6089;SDS011;3073;42.660;23.316;2022-07-29T00:02:38;13.53;;;11.40;;
6089;SDS011;3073;42.660;23.316;2022-07-29T00:05:07;14.20;;;10.67;;
6089;SDS011;3073;42.660;23.316;2022-07-29T00:07:34;19.23;;;10.03;;
6089;SDS011;3073;42.660;23.316;2022-07-29T00:10:03;14.57;;;11.23;;
6089;SDS011;3073;42.660;23.316;2022-07-29T00:12:32;16.33;;;10.23;;
6089;SDS011;3073;42.660;23.316;2022-07-29T00:14:59;14.67;;;10.80;;
6089;SDS011;3073;42.660;23.316;2022-07-29T00:17:26;17.37;;;10.40;;
6089;SDS011;3073;42.660;23.316;2022-07-29T00:19:53;17.07;;;10.93;;
6089;SDS011;3073;42.660;23.316;2022-07-29T00:22:20;12.50;;;10.50;;
6089;SDS011;3073;42.660;23.316;2022-07-29T00:24:47;12.40;;;10.90;;
6089;SDS011;3073;42.660;23.316;2022-07-29T00:27:15;12.80;;;10.80;;
6089;SDS011;3073;42.660;23.316;2022-07-29T00:29:43;13.50;;;10.33;;
6089;SDS011;3073;42.660;23.316;2022-07-29T00:32:10;15.90;;;10.33;;
6089;SDS011;3073;42.660;23.316;2022-07-29T00:34:37;10.40;;;9.20;;
6089;SDS011;3073;42.660;23.316;2022-07-29T00:37:21;10.80;;;9.70;;
6089;SDS011;3073;42.660;23.316;2022-07-29T00:39:48;15.17;;;10.70;;
6089;SDS011;3073;42.660;23.316;2022-07-29T00:42:15;13.00;;;10.00;;
6089;SDS011;3073;42.660;23.316;2022-07-29T00:44:44;13.93;;;10.23;;
6089;SDS011;3073;42.660;23.316;2022-07-29T00:47:11;12.43;;;9.27;;
6089;SDS011;3073;42.660;23.316;2022-07-29T00:49:38;16.43;;;10.50;;
6089;SDS011;3073;42.660;23.316;2022-07-29T00:52:07;15.43;;;9.70;;
6089;SDS011;3073;42.660;23.316;2022-07-29T00:54:36;10.83;;;9.73;;
6089;SDS011;3073;42.660;23.316;2022-07-29T00:57:04;14.90;;;10.70;;
6089;SDS011;3073;42.660;23.316;2022-07-29T00:59:32;11.77;;;10.07;;
6089;SDS011;3073;42.660;23.316;2022-07-29T01:02:01;11.30;;;9.90;;
6089;SDS011;3073;42.660;23.316;2022-07-29T01:04:28;13.80;;;11.27;;
6089;SDS011;3073;42.660;23.316;2022-07-29T01:06:57;14.70;;;12.80;;
6089;SDS011;3073;42.660;23.316;2022-07-29T01:09:25;19.60;;;14.73;;
6089;SDS011;3073;42.660;23.316;2022-07-29T01:11:53;20.33;;;16.80;;
6089;SDS011;3073;42.660;23.316;2022-07-29T01:14:20;18.53;;;16.20;;
6089;SDS011;3073;42.660;23.316;2022-07-29T01:16:50;21.87;;;17.90;;
6089;SDS011;3073;42.660;23.316;2022-07-29T01:19:32;19.70;;;16.87;;
6089;SDS011;3073;42.660;23.316;2022-07-29T01:22:12;20.70;;;17.40;;
6089;SDS011;3073;42.660;23.316;2022-07-29T01:28:14;24.13;;;19.60;;
6089;SDS011;3073;42.660;23.316;2022-07-29T01:30:52;23.40;;;18.87;;
6089;SDS011;3073;42.660;23.316;2022-07-29T01:33:21;20.10;;;16.93;;
6089;SDS011;3073;42.660;23.316;2022-07-29T01:36:10;23.43;;;18.57;;
6089;SDS011;3073;42.660;23.316;2022-07-29T01:38:39;22.13;;;16.80;;
6089;SDS011;3073;42.660;23.316;2022-07-29T01:41:09;20.80;;;18.40;;
6089;SDS011;3073;42.660;23.316;2022-07-29T01:43:42;22.67;;;16.23;;
6089;SDS011;3073;42.660;23.316;2022-07-29T01:46:17;22.60;;;18.07;;
6089;SDS011;3073;42.660;23.316;2022-07-29T01:48:52;23.13;;;18.73;;
6089;SDS011;3073;42.660;23.316;2022-07-29T01:51:24;28.40;;;18.20;;
6089;SDS011;3073;42.660;23.316;2022-07-29T01:53:55;22.00;;;17.60;;
6089;SDS011;3073;42.660;23.316;2022-07-29T01:56:29;22.70;;;16.30;;
6089;SDS011;3073;42.660;23.316;2022-07-29T01:58:58;21.67;;;16.70;;
6089;SDS011;3073;42.660;23.316;2022-07-29T02:01:28;22.47;;;17.53;;
6089;SDS011;3073;42.660;23.316;2022-07-29T02:03:59;25.00;;;18.90;;
6089;SDS011;3073;42.660;23.316;2022-07-29T02:06:29;26.70;;;18.73;;
6089;SDS011;3073;42.660;23.316;2022-07-29T02:08:58;28.00;;;18.50;;
6089;SDS011;3073;42.660;23.316;2022-07-29T02:11:26;27.97;;;19.20;;
6089;SDS011;3073;42.660;23.316;2022-07-29T02:13:54;21.33;;;17.93;;
6089;SDS011;3073;42.660;23.316;2022-07-29T02:16:23;23.87;;;18.00;;
6089;SDS011;3073;42.660;23.316;2022-07-29T02:18:54;24.93;;;17.40;;
6089;SDS011;3073;42.660;23.316;2022-07-29T02:21:24;19.40;;;15.50;;
6089;SDS011;3073;42.660;23.316;2022-07-29T02:23:52;18.87;;;15.40;;
6089;SDS011;3073;42.660;23.316;2022-07-29T02:26:21;21.70;;;15.47;;
6089;SDS011;3073;42.660;23.316;2022-07-29T02:28:51;23.37;;;14.90;;
6089;SDS011;3073;42.660;23.316;2022-07-29T02:31:21;19.80;;;15.00;;
6089;SDS011;3073;42.660;23.316;2022-07-29T02:33:50;22.20;;;15.43;;
6089;SDS011;3073;42.660;23.316;2022-07-29T02:36:21;20.73;;;15.10;;
6089;SDS011;3073;42.660;23.316;2022-07-29T02:38:49;22.13;;;16.50;;
6089;SDS011;3073;42.660;23.316;2022-07-29T02:41:18;22.20;;;16.93;;
6089;SDS011;3073;42.660;23.316;2022-07-29T02:43:50;20.77;;;16.97;;
6089;SDS011;3073;42.660;23.316;2022-07-29T02:46:25;25.37;;;17.60;;
6089;SDS011;3073;42.660;23.316;2022-07-29T02:48:58;22.47;;;17.37;;
6089;SDS011;3073;42.660;23.316;2022-07-29T02:51:33;20.70;;;17.33;;
6089;SDS011;3073;42.660;23.316;2022-07-29T02:54:07;21.27;;;16.60;;
6089;SDS011;3073;42.660;23.316;2022-07-29T02:56:36;23.90;;;15.30;;
6089;SDS011;3073;42.660;23.316;2022-07-29T02:59:08;23.80;;;15.37;;
6089;SDS011;3073;42.660;23.316;2022-07-29T03:01:39;18.57;;;13.80;;
6089;SDS011;3073;42.660;23.316;2022-07-29T03:04:09;18.10;;;14.23;;
6089;SDS011;3073;42.660;23.316;2022-07-29T03:06:40;17.80;;;14.70;;
6089;SDS011;3073;42.660;23.316;2022-07-29T03:09:10;18.70;;;14.10;;
6089;SDS011;3073;42.660;23.316;2022-07-29T03:11:38;20.90;;;13.37;;
6089;SDS011;3073;42.660;23.316;2022-07-29T03:14:05;18.63;;;13.20;;
6089;SDS011;3073;42.660;23.316;2022-07-29T03:16:34;20.53;;;13.40;;
6089;SDS011;3073;42.660;23.316;2022-07-29T03:19:02;19.63;;;12.20;;
6089;SDS011;3073;42.660;23.316;2022-07-29T03:21:30;32.77;;;12.37;;
6089;SDS011;3073;42.660;23.316;2022-07-29T03:23:58;15.33;;;12.13;;
6089;SDS011;3073;42.660;23.316;2022-07-29T03:26:25;18.00;;;13.63;;
6089;SDS011;3073;42.660;23.316;2022-07-29T03:28:52;24.83;;;15.40;;
6089;SDS011;3073;42.660;23.316;2022-07-29T03:31:20;15.50;;;13.50;;
6089;SDS011;3073;42.660;23.316;2022-07-29T03:33:47;19.80;;;14.33;;
6089;SDS011;3073;42.660;23.316;2022-07-29T03:36:13;15.00;;;12.90;;
6089;SDS011;3073;42.660;23.316;2022-07-29T03:38:40;20.70;;;13.03;;
6089;SDS011;3073;42.660;23.316;2022-07-29T03:41:11;19.30;;;14.77;;
6089;SDS011;3073;42.660;23.316;2022-07-29T03:43:40;25.83;;;17.33;;
6089;SDS011;3073;42.660;23.316;2022-07-29T03:46:09;18.87;;;15.17;;
6089;SDS011;3073;42.660;23.316;2022-07-29T03:48:39;21.40;;;14.17;;
6089;SDS011;3073;42.660;23.316;2022-07-29T03:51:12;21.33;;;15.43;;
6089;SDS011;3073;42.660;23.316;2022-07-29T03:53:40;20.00;;;15.87;;
6089;SDS011;3073;42.660;23.316;2022-07-29T03:56:07;20.73;;;15.33;;
6089;SDS011;3073;42.660;23.316;2022-07-29T03:58:37;15.43;;;11.40;;
6089;SDS011;3073;42.660;23.316;2022-07-29T04:01:05;18.30;;;13.80;;
6089;SDS011;3073;42.660;23.316;2022-07-29T04:03:32;23.97;;;12.90;;
6089;SDS011;3073;42.660;23.316;2022-07-29T04:06:00;14.43;;;11.60;;
6089;SDS011;3073;42.660;23.316;2022-07-29T04:08:30;22.87;;;11.57;;
6089;SDS011;3073;42.660;23.316;2022-07-29T04:10:57;19.33;;;12.37;;
6089;SDS011;3073;42.660;23.316;2022-07-29T04:13:24;20.80;;;13.57;;
6089;SDS011;3073;42.660;23.316;2022-07-29T04:15:56;19.47;;;12.60;;
6089;SDS011;3073;42.660;23.316;2022-07-29T04:18:23;14.20;;;12.20;;
6089;SDS011;3073;42.660;23.316;2022-07-29T04:20:50;19.40;;;12.90;;
6089;SDS011;3073;42.660;23.316;2022-07-29T04:23:17;21.47;;;13.90;;
6089;SDS011;3073;42.660;23.316;2022-07-29T04:25:43;15.20;;;13.30;;
6089;SDS011;3073;42.660;23.316;2022-07-29T04:28:10;22.40;;;14.47;;
6089;SDS011;3073;42.660;23.316;2022-07-29T04:30:37;20.20;;;15.57;;
6089;SDS011;3073;42.660;23.316;2022-07-29T04:33:06;16.33;;;12.17;;
6089;SDS011;3073;42.660;23.316;2022-07-29T04:35:35;19.43;;;13.73;;
6089;SDS011;3073;42.660;23.316;2022-07-29T04:38:03;21.83;;;13.10;;
6089;SDS011;3073;42.660;23.316;2022-07-29T04:40:31;20.30;;;15.13;;
6089;SDS011;3073;42.660;23.316;2022-07-29T04:42:59;19.03;;;13.87;;
6089;SDS011;3073;42.660;23.316;2022-07-29T04:45:27;18.60;;;12.93;;
6089;SDS011;3073;42.660;23.316;2022-07-29T04:47:54;31.67;;;15.00;;
6089;SDS011;3073;42.660;23.316;2022-07-29T04:50:23;20.70;;;12.77;;
6089;SDS011;3073;42.660;23.316;2022-07-29T04:52:50;21.17;;;13.30;;
6089;SDS011;3073;42.660;23.316;2022-07-29T04:55:17;17.20;;;11.17;;
6089;SDS011;3073;42.660;23.316;2022-07-29T04:57:44;15.03;;;12.00;;
6089;SDS011;3073;42.660;23.316;2022-07-29T05:00:11;13.13;;;11.57;;
6089;SDS011;3073;42.660;23.316;2022-07-29T05:02:38;12.47;;;10.10;;
6089;SDS011;3073;42.660;23.316;2022-07-29T05:05:05;19.20;;;10.37;;
6089;SDS011;3073;42.660;23.316;2022-07-29T05:07:34;10.83;;;8.87;;
6089;SDS011;3073;42.660;23.316;2022-07-29T05:10:01;11.37;;;8.63;;
6089;SDS011;3073;42.660;23.316;2022-07-29T05:12:29;12.80;;;8.60;;
6089;SDS011;3073;42.660;23.316;2022-07-29T05:14:56;9.67;;;8.00;;
6089;SDS011;3073;42.660;23.316;2022-07-29T05:17:22;14.80;;;8.67;;
6089;SDS011;3073;42.660;23.316;2022-07-29T05:19:49;10.27;;;8.10;;
6089;SDS011;3073;42.660;23.316;2022-07-29T05:22:17;14.67;;;9.03;;
6089;SDS011;3073;42.660;23.316;2022-07-29T05:24:45;9.97;;;8.80;;
6089;SDS011;3073;42.660;23.316;2022-07-29T05:27:12;9.40;;;8.17;;
6089;SDS011;3073;42.660;23.316;2022-07-29T05:29:39;11.80;;;8.90;;
6089;SDS011;3073;42.660;23.316;2022-07-29T05:32:06;23.40;;;8.93;;
6089;SDS011;3073;42.660;23.316;2022-07-29T05:34:33;18.03;;;9.63;;
6089;SDS011;3073;42.660;23.316;2022-07-29T05:37:00;10.10;;;8.00;;
6089;SDS011;3073;42.660;23.316;2022-07-29T05:39:27;17.70;;;9.27;;
6089;SDS011;3073;42.660;23.316;2022-07-29T05:41:58;13.40;;;9.37;;
6089;SDS011;3073;42.660;23.316;2022-07-29T05:44:25;12.70;;;8.60;;
6089;SDS011;3073;42.660;23.316;2022-07-29T05:46:52;11.77;;;8.10;;
6089;SDS011;3073;42.660;23.316;2022-07-29T05:49:19;12.50;;;8.70;;
6089;SDS011;3073;42.660;23.316;2022-07-29T05:51:45;11.90;;;8.07;;
6089;SDS011;3073;42.660;23.316;2022-07-29T05:54:13;16.63;;;8.20;;
6089;SDS011;3073;42.660;23.316;2022-07-29T05:56:40;10.97;;;7.70;;
6089;SDS011;3073;42.660;23.316;2022-07-29T05:59:08;12.50;;;8.60;;
6089;SDS011;3073;42.660;23.316;2022-07-29T06:01:36;15.47;;;8.87;;
6089;SDS011;3073;42.660;23.316;2022-07-29T06:04:04;13.43;;;8.80;;
6089;SDS011;3073;42.660;23.316;2022-07-29T06:06:31;17.70;;;9.70;;
6089;SDS011;3073;42.660;23.316;2022-07-29T06:08:58;18.60;;;9.00;;
6089;SDS011;3073;42.660;23.316;2022-07-29T06:11:25;15.33;;;8.90;;
6089;SDS011;3073;42.660;23.316;2022-07-29T06:13:52;16.47;;;8.80;;
6089;SDS011;3073;42.660;23.316;2022-07-29T06:16:21;10.88;;;7.93;;
6089;SDS011;3073;42.660;23.316;2022-07-29T06:18:47;21.77;;;9.43;;
6089;SDS011;3073;42.660;23.316;2022-07-29T06:21:14;10.40;;;8.30;;
6089;SDS011;3073;42.660;23.316;2022-07-29T06:23:41;10.10;;;8.48;;
6089;SDS011;3073;42.660;23.316;2022-07-29T06:26:08;11.07;;;8.32;;
6089;SDS011;3073;42.660;23.316;2022-07-29T06:28:35;16.17;;;9.07;;
6089;SDS011;3073;42.660;23.316;2022-07-29T06:31:02;9.82;;;8.35;;
6089;SDS011;3073;42.660;23.316;2022-07-29T06:33:30;9.05;;;7.15;;
6089;SDS011;3073;42.660;23.316;2022-07-29T06:35:58;13.10;;;7.45;;
6089;SDS011;3073;42.660;23.316;2022-07-29T06:38:25;11.23;;;8.23;;
6089;SDS011;3073;42.660;23.316;2022-07-29T06:40:52;9.80;;;7.57;;
6089;SDS011;3073;42.660;23.316;2022-07-29T06:43:28;18.88;;;8.20;;
6089;SDS011;3073;42.660;23.316;2022-07-29T06:46:02;17.60;;;8.90;;
6089;SDS011;3073;42.660;23.316;2022-07-29T06:48:32;16.70;;;10.57;;
6089;SDS011;3073;42.660;23.316;2022-07-29T06:51:00;15.50;;;8.93;;
6089;SDS011;3073;42.660;23.316;2022-07-29T06:53:27;14.73;;;8.07;;
6089;SDS011;3073;42.660;23.316;2022-07-29T06:55:55;21.50;;;7.18;;
6089;SDS011;3073;42.660;23.316;2022-07-29T06:58:23;13.63;;;8.60;;
6089;SDS011;3073;42.660;23.316;2022-07-29T07:00:50;11.48;;;8.18;;
6089;SDS011;3073;42.660;23.316;2022-07-29T07:03:17;10.27;;;7.43;;
6089;SDS011;3073;42.660;23.316;2022-07-29T07:05:46;9.18;;;6.53;;
6089;SDS011;3073;42.660;23.316;2022-07-29T07:08:13;9.60;;;7.38;;
6089;SDS011;3073;42.660;23.316;2022-07-29T07:10:41;9.73;;;7.25;;
6089;SDS011;3073;42.660;23.316;2022-07-29T07:13:08;10.93;;;7.43;;
6089;SDS011;3073;42.660;23.316;2022-07-29T07:15:35;10.30;;;7.30;;
6089;SDS011;3073;42.660;23.316;2022-07-29T07:18:02;11.00;;;7.65;;
6089;SDS011;3073;42.660;23.316;2022-07-29T07:20:30;7.22;;;6.53;;
6089;SDS011;3073;42.660;23.316;2022-07-29T07:22:58;11.10;;;7.10;;
6089;SDS011;3073;42.660;23.316;2022-07-29T07:25:25;16.30;;;8.10;;
6089;SDS011;3073;42.660;23.316;2022-07-29T07:27:53;12.55;;;7.47;;
6089;SDS011;3073;42.660;23.316;2022-07-29T07:30:20;12.93;;;6.72;;
6089;SDS011;3073;42.660;23.316;2022-07-29T07:32:47;11.88;;;6.57;;
6089;SDS011;3073;42.660;23.316;2022-07-29T07:35:14;8.25;;;6.50;;
6089;SDS011;3073;42.660;23.316;2022-07-29T07:37:41;10.05;;;6.88;;
6089;SDS011;3073;42.660;23.316;2022-07-29T07:40:10;8.25;;;6.13;;
6089;SDS011;3073;42.660;23.316;2022-07-29T07:42:39;8.77;;;7.15;;
6089;SDS011;3073;42.660;23.316;2022-07-29T07:45:07;10.77;;;5.63;;
6089;SDS011;3073;42.660;23.316;2022-07-29T07:47:35;8.07;;;5.90;;
6089;SDS011;3073;42.660;23.316;2022-07-29T07:50:03;11.98;;;6.28;;
6089;SDS011;3073;42.660;23.316;2022-07-29T07:52:31;8.27;;;5.35;;
6089;SDS011;3073;42.660;23.316;2022-07-29T07:54:59;12.10;;;5.88;;
6089;SDS011;3073;42.660;23.316;2022-07-29T07:57:27;12.50;;;5.80;;
6089;SDS011;3073;42.660;23.316;2022-07-29T07:59:54;8.80;;;5.60;;
6089;SDS011;3073;42.660;23.316;2022-07-29T08:02:21;9.85;;;6.43;;
6089;SDS011;3073;42.660;23.316;2022-07-29T08:04:47;6.38;;;4.97;;
6089;SDS011;3073;42.660;23.316;2022-07-29T08:07:14;8.88;;;5.72;;
6089;SDS011;3073;42.660;23.316;2022-07-29T08:09:41;10.40;;;4.30;;
6089;SDS011;3073;42.660;23.316;2022-07-29T08:12:08;10.63;;;5.65;;
6089;SDS011;3073;42.660;23.316;2022-07-29T08:14:36;5.85;;;5.20;;
6089;SDS011;3073;42.660;23.316;2022-07-29T08:17:03;6.40;;;5.30;;
6089;SDS011;3073;42.660;23.316;2022-07-29T08:19:30;7.38;;;5.32;;
6089;SDS011;3073;42.660;23.316;2022-07-29T08:21:57;5.72;;;4.90;;
6089;SDS011;3073;42.660;23.316;2022-07-29T08:24:24;10.40;;;5.13;;
6089;SDS011;3073;42.660;23.316;2022-07-29T08:27:09;8.90;;;5.55;;
6089;SDS011;3073;42.660;23.316;2022-07-29T08:29:39;8.85;;;5.63;;
6089;SDS011;3073;42.660;23.316;2022-07-29T08:32:06;8.18;;;4.70;;
6089;SDS011;3073;42.660;23.316;2022-07-29T08:34:33;5.63;;;4.95;;
6089;SDS011;3073;42.660;23.316;2022-07-29T08:37:00;6.18;;;4.43;;
6089;SDS011;3073;42.660;23.316;2022-07-29T08:39:27;10.50;;;5.05;;
6089;SDS011;3073;42.660;23.316;2022-07-29T08:41:53;9.65;;;4.10;;
6089;SDS011;3073;42.660;23.316;2022-07-29T08:44:21;9.43;;;5.10;;
6089;SDS011;3073;42.660;23.316;2022-07-29T08:46:49;5.82;;;4.13;;
6089;SDS011;3073;42.660;23.316;2022-07-29T08:49:16;6.38;;;4.50;;
6089;SDS011;3073;42.660;23.316;2022-07-29T08:51:43;5.63;;;4.47;;
6089;SDS011;3073;42.660;23.316;2022-07-29T08:54:11;7.95;;;3.78;;
6089;SDS011;3073;42.660;23.316;2022-07-29T08:56:43;4.63;;;4.13;;
6089;SDS011;3073;42.660;23.316;2022-07-29T08:59:11;7.45;;;5.13;;
6089;SDS011;3073;42.660;23.316;2022-07-29T09:01:39;5.50;;;3.90;;
6089;SDS011;3073;42.660;23.316;2022-07-29T09:04:11;7.53;;;4.80;;
6089;SDS011;3073;42.660;23.316;2022-07-29T09:06:42;7.50;;;4.57;;
6089;SDS011;3073;42.660;23.316;2022-07-29T09:09:10;5.88;;;5.28;;
6089;SDS011;3073;42.660;23.316;2022-07-29T09:11:38;5.65;;;5.13;;
6089;SDS011;3073;42.660;23.316;2022-07-29T09:14:06;5.70;;;5.05;;
6089;SDS011;3073;42.660;23.316;2022-07-29T09:16:43;7.57;;;4.85;;
6089;SDS011;3073;42.660;23.316;2022-07-29T09:19:20;8.00;;;5.78;;
6089;SDS011;3073;42.660;23.316;2022-07-29T09:21:54;10.48;;;4.97;;
6089;SDS011;3073;42.660;23.316;2022-07-29T09:24:23;7.32;;;6.43;;
6089;SDS011;3073;42.660;23.316;2022-07-29T09:26:52;5.68;;;4.72;;
6089;SDS011;3073;42.660;23.316;2022-07-29T09:29:19;5.45;;;3.92;;
6089;SDS011;3073;42.660;23.316;2022-07-29T09:31:48;7.78;;;4.55;;
6089;SDS011;3073;42.660;23.316;2022-07-29T09:34:16;8.98;;;3.92;;
6089;SDS011;3073;42.660;23.316;2022-07-29T09:36:49;4.70;;;4.20;;
6089;SDS011;3073;42.660;23.316;2022-07-29T09:39:26;13.30;;;4.07;;
6089;SDS011;3073;42.660;23.316;2022-07-29T09:41:55;6.75;;;4.47;;
6089;SDS011;3073;42.660;23.316;2022-07-29T09:44:23;10.80;;;4.15;;
6089;SDS011;3073;42.660;23.316;2022-07-29T09:46:57;7.30;;;4.30;;
6089;SDS011;3073;42.660;23.316;2022-07-29T09:49:30;4.85;;;4.35;;
6089;SDS011;3073;42.660;23.316;2022-07-29T09:52:05;10.02;;;5.05;;
6089;SDS011;3073;42.660;23.316;2022-07-29T09:54:34;5.55;;;4.90;;
6089;SDS011;3073;42.660;23.316;2022-07-29T09:57:06;5.80;;;5.00;;
6089;SDS011;3073;42.660;23.316;2022-07-29T09:59:37;7.43;;;5.72;;
6089;SDS011;3073;42.660;23.316;2022-07-29T10:02:11;10.02;;;6.28;;
6089;SDS011;3073;42.660;23.316;2022-07-29T10:04:39;6.53;;;5.90;;
6089;SDS011;3073;42.660;23.316;2022-07-29T10:07:08;11.77;;;6.55;;
6089;SDS011;3073;42.660;23.316;2022-07-29T10:09:35;7.00;;;5.18;;
6089;SDS011;3073;42.660;23.316;2022-07-29T10:12:03;7.82;;;4.93;;
6089;SDS011;3073;42.660;23.316;2022-07-29T10:14:36;8.70;;;4.25;;
6089;SDS011;3073;42.660;23.316;2022-07-29T10:17:04;10.65;;;4.95;;
6089;SDS011;3073;42.660;23.316;2022-07-29T10:19:32;7.00;;;5.55;;
6089;SDS011;3073;42.660;23.316;2022-07-29T10:22:01;7.45;;;4.40;;
6089;SDS011;3073;42.660;23.316;2022-07-29T10:24:34;7.15;;;4.47;;
6089;SDS011;3073;42.660;23.316;2022-07-29T10:27:03;6.28;;;4.63;;
6089;SDS011;3073;42.660;23.316;2022-07-29T10:29:31;7.38;;;4.20;;
6089;SDS011;3073;42.660;23.316;2022-07-29T10:40:42;4.72;;;4.18;;
6089;SDS011;3073;42.660;23.316;2022-07-29T10:43:36;6.45;;;5.60;;
6089;SDS011;3073;42.660;23.316;2022-07-29T10:46:08;10.30;;;5.43;;
6089;SDS011;3073;42.660;23.316;2022-07-29T10:48:40;12.00;;;5.55;;
6089;SDS011;3073;42.660;23.316;2022-07-29T10:54:36;9.05;;;5.85;;
6089;SDS011;3073;42.660;23.316;2022-07-29T10:57:13;9.85;;;6.57;;
6089;SDS011;3073;42.660;23.316;2022-07-29T10:59:41;9.75;;;5.88;;
6089;SDS011;3073;42.660;23.316;2022-07-29T11:05:10;6.05;;;5.35;;
6089;SDS011;3073;42.660;23.316;2022-07-29T11:07:38;12.63;;;6.13;;
6089;SDS011;3073;42.660;23.316;2022-07-29T11:10:19;7.70;;;5.43;;
6089;SDS011;3073;42.660;23.316;2022-07-29T11:12:49;8.23;;;5.82;;
6089;SDS011;3073;42.660;23.316;2022-07-29T11:15:18;6.70;;;5.32;;
6089;SDS011;3073;42.660;23.316;2022-07-29T11:18:05;8.30;;;5.78;;
6089;SDS011;3073;42.660;23.316;2022-07-29T11:20:33;6.80;;;5.50;;
6089;SDS011;3073;42.660;23.316;2022-07-29T11:23:17;6.03;;;5.43;;
6089;SDS011;3073;42.660;23.316;2022-07-29T11:25:45;12.15;;;6.35;;
6089;SDS011;3073;42.660;23.316;2022-07-29T11:28:34;8.10;;;5.50;;
6089;SDS011;3073;42.660;23.316;2022-07-29T11:31:05;11.93;;;6.07;;
6089;SDS011;3073;42.660;23.316;2022-07-29T11:33:36;7.35;;;5.38;;
6089;SDS011;3073;42.660;23.316;2022-07-29T11:36:09;7.03;;;4.82;;
6089;SDS011;3073;42.660;23.316;2022-07-29T11:38:39;11.07;;;5.53;;
6089;SDS011;3073;42.660;23.316;2022-07-29T11:41:19;7.80;;;5.47;;
6089;SDS011;3073;42.660;23.316;2022-07-29T11:43:51;10.02;;;6.03;;
6089;SDS011;3073;42.660;23.316;2022-07-29T11:49:18;11.48;;;6.85;;
6089;SDS011;3073;42.660;23.316;2022-07-29T11:51:50;8.73;;;5.95;;
6089;SDS011;3073;42.660;23.316;2022-07-29T11:54:21;6.25;;;5.65;;
6089;SDS011;3073;42.660;23.316;2022-07-29T11:56:51;11.95;;;6.22;;
6089;SDS011;3073;42.660;23.316;2022-07-29T11:59:20;9.02;;;5.93;;
6089;SDS011;3073;42.660;23.316;2022-07-29T12:01:54;7.00;;;6.30;;
6089;SDS011;3073;42.660;23.316;2022-07-29T12:04:22;6.00;;;5.07;;
6089;SDS011;3073;42.660;23.316;2022-07-29T12:06:49;9.25;;;5.38;;
6089;SDS011;3073;42.660;23.316;2022-07-29T12:09:17;7.07;;;5.10;;
6089;SDS011;3073;42.660;23.316;2022-07-29T12:11:45;6.40;;;5.43;;
6089;SDS011;3073;42.660;23.316;2022-07-29T12:14:25;6.15;;;5.47;;
6089;SDS011;3073;42.660;23.316;2022-07-29T12:16:53;9.07;;;8.18;;
6089;SDS011;3073;42.660;23.316;2022-07-29T12:19:19;11.02;;;5.75;;
6089;SDS011;3073;42.660;23.316;2022-07-29T12:21:47;10.50;;;5.95;;
6089;SDS011;3073;42.660;23.316;2022-07-29T12:24:15;7.10;;;5.53;;
6089;SDS011;3073;42.660;23.316;2022-07-29T12:26:49;5.88;;;5.38;;
6089;SDS011;3073;42.660;23.316;2022-07-29T12:29:16;7.70;;;6.13;;
6089;SDS011;3073;42.660;23.316;2022-07-29T12:31:45;6.78;;;5.60;;
6089;SDS011;3073;42.660;23.316;2022-07-29T12:34:12;12.32;;;5.90;;
6089;SDS011;3073;42.660;23.316;2022-07-29T12:36:41;7.18;;;6.05;;
6089;SDS011;3073;42.660;23.316;2022-07-29T12:39:09;8.32;;;6.03;;
6089;SDS011;3073;42.660;23.316;2022-07-29T12:41:37;5.78;;;5.18;;
6089;SDS011;3073;42.660;23.316;2022-07-29T12:44:04;8.05;;;6.15;;
6089;SDS011;3073;42.660;23.316;2022-07-29T12:46:31;5.95;;;5.45;;
6089;SDS011;3073;42.660;23.316;2022-07-29T12:49:00;5.85;;;5.13;;
6089;SDS011;3073;42.660;23.316;2022-07-29T12:51:30;9.30;;;5.95;;
6089;SDS011;3073;42.660;23.316;2022-07-29T12:54:05;7.32;;;5.78;;
6089;SDS011;3073;42.660;23.316;2022-07-29T12:56:35;11.68;;;6.38;;
6089;SDS011;3073;42.660;23.316;2022-07-29T12:59:10;6.45;;;5.85;;
6089;SDS011;3073;42.660;23.316;2022-07-29T13:01:38;8.43;;;6.88;;
6089;SDS011;3073;42.660;23.316;2022-07-29T13:04:07;7.80;;;6.93;;
6089;SDS011;3073;42.660;23.316;2022-07-29T13:06:36;7.20;;;5.63;;
6089;SDS011;3073;42.660;23.316;2022-07-29T13:09:06;6.32;;;5.72;;
6089;SDS011;3073;42.660;23.316;2022-07-29T13:11:37;7.22;;;5.65;;
6089;SDS011;3073;42.660;23.316;2022-07-29T13:14:06;7.03;;;6.30;;
6089;SDS011;3073;42.660;23.316;2022-07-29T13:16:35;9.32;;;6.07;;
6089;SDS011;3073;42.660;23.316;2022-07-29T13:19:07;6.65;;;6.05;;
6089;SDS011;3073;42.660;23.316;2022-07-29T13:21:36;7.38;;;6.68;;
6089;SDS011;3073;42.660;23.316;2022-07-29T13:24:06;7.72;;;6.95;;
6089;SDS011;3073;42.660;23.316;2022-07-29T13:26:33;6.85;;;6.13;;
6089;SDS011;3073;42.660;23.316;2022-07-29T13:29:01;8.38;;;6.55;;
6089;SDS011;3073;42.660;23.316;2022-07-29T13:31:29;6.95;;;6.03;;
6089;SDS011;3073;42.660;23.316;2022-07-29T13:33:56;7.38;;;5.65;;
6089;SDS011;3073;42.660;23.316;2022-07-29T13:36:25;11.40;;;6.68;;
6089;SDS011;3073;42.660;23.316;2022-07-29T13:38:52;9.63;;;5.82;;
6089;SDS011;3073;42.660;23.316;2022-07-29T13:41:18;6.30;;;5.57;;
6089;SDS011;3073;42.660;23.316;2022-07-29T13:43:45;7.55;;;5.15;;
6089;SDS011;3073;42.660;23.316;2022-07-29T13:46:12;10.80;;;5.40;;
6089;SDS011;3073;42.660;23.316;2022-07-29T13:48:39;7.22;;;5.60;;
6089;SDS011;3073;42.660;23.316;2022-07-29T13:51:06;8.05;;;6.00;;
6089;SDS011;3073;42.660;23.316;2022-07-29T13:53:34;6.97;;;5.13;;
6089;SDS011;3073;42.660;23.316;2022-07-29T13:56:01;8.15;;;5.63;;
6089;SDS011;3073;42.660;23.316;2022-07-29T13:58:30;6.50;;;5.63;;
6089;SDS011;3073;42.660;23.316;2022-07-29T14:00:57;6.70;;;5.47;;
6089;SDS011;3073;42.660;23.316;2022-07-29T14:03:24;5.75;;;5.25;;
6089;SDS011;3073;42.660;23.316;2022-07-29T14:05:51;6.25;;;5.65;;
6089;SDS011;3073;42.660;23.316;2022-07-29T14:08:18;10.57;;;5.63;;
6089;SDS011;3073;42.660;23.316;2022-07-29T14:10:46;6.57;;;5.80;;
6089;SDS011;3073;42.660;23.316;2022-07-29T14:13:13;9.75;;;5.22;;
6089;SDS011;3073;42.660;23.316;2022-07-29T14:15:40;8.38;;;6.00;;
6089;SDS011;3073;42.660;23.316;2022-07-29T14:18:07;8.93;;;5.97;;
6089;SDS011;3073;42.660;23.316;2022-07-29T14:20:34;8.48;;;5.55;;
6089;SDS011;3073;42.660;23.316;2022-07-29T14:23:00;8.75;;;6.55;;
6089;SDS011;3073;42.660;23.316;2022-07-29T14:25:27;7.95;;;6.00;;
6089;SDS011;3073;42.660;23.316;2022-07-29T14:27:56;7.90;;;5.60;;
6089;SDS011;3073;42.660;23.316;2022-07-29T14:30:23;6.18;;;5.57;;
6089;SDS011;3073;42.660;23.316;2022-07-29T14:32:49;6.55;;;5.95;;
6089;SDS011;3073;42.660;23.316;2022-07-29T14:35:16;6.15;;;5.55;;
6089;SDS011;3073;42.660;23.316;2022-07-29T14:37:43;10.35;;;6.28;;
6089;SDS011;3073;42.660;23.316;2022-07-29T14:40:10;13.23;;;5.85;;
6089;SDS011;3073;42.660;23.316;2022-07-29T14:42:37;9.13;;;5.70;;
6089;SDS011;3073;42.660;23.316;2022-07-29T14:45:06;7.07;;;6.45;;
6089;SDS011;3073;42.660;23.316;2022-07-29T14:47:35;10.88;;;5.55;;
6089;SDS011;3073;42.660;23.316;2022-07-29T14:50:02;8.57;;;6.07;;
6089;SDS011;3073;42.660;23.316;2022-07-29T14:52:30;6.20;;;5.60;;
6089;SDS011;3073;42.660;23.316;2022-07-29T14:54:57;7.38;;;5.82;;
6089;SDS011;3073;42.660;23.316;2022-07-29T14:57:24;6.97;;;6.00;;
6089;SDS011;3073;42.660;23.316;2022-07-29T14:59:51;11.63;;;5.70;;
6089;SDS011;3073;42.660;23.316;2022-07-29T15:02:20;11.07;;;6.72;;
6089;SDS011;3073;42.660;23.316;2022-07-29T15:04:47;7.25;;;5.93;;
6089;SDS011;3073;42.660;23.316;2022-07-29T15:07:14;6.28;;;5.72;;
6089;SDS011;3073;42.660;23.316;2022-07-29T15:09:41;8.88;;;6.50;;
6089;SDS011;3073;42.660;23.316;2022-07-29T15:12:10;7.63;;;6.57;;
6089;SDS011;3073;42.660;23.316;2022-07-29T15:14:37;8.07;;;6.75;;
6089;SDS011;3073;42.660;23.316;2022-07-29T15:17:03;7.15;;;6.03;;
6089;SDS011;3073;42.660;23.316;2022-07-29T15:19:32;7.63;;;5.70;;